TAF PGSN
PGSN 090520Z 0906/1006 08014KT P6SM VCSH SCT020=
METAR PGSN
WC PGSN
WS PGSN
WV PGSN